Time;durP1;ratioP1;P1;durP2;ratioP2;P2;SDS_P1;SDS_P2;PMS_P1;PMS_P2;Temp;Humidity;BMP_temperature;BMP_pressure;BME280_temperature;BME280_humidity;BME280_pressure;Samples;Min_cycle;Max_cycle;Signal;HPM_P1;HPM_P2
2021/09/06 00:02:03;;;;;;;21.37;19.03;;;13.60;1.00;;;;;;6217310;23;20452;-54
2021/09/06 00:04:30;;;;;;;21.20;19.00;;;13.50;99.90;;;;;;6216612;23;20455;-52
2021/09/06 00:06:57;;;;;;;22.37;19.20;;;13.50;99.90;;;;;;6217414;23;20418;-55
2021/09/06 00:09:27;;;;;;;23.37;17.73;;;13.50;1.00;;;;;;6217055;23;20742;-48
2021/09/06 00:11:54;;;;;;;20.63;18.43;;;13.50;99.90;;;;;;6217522;23;20427;-51
2021/09/06 00:14:22;;;;;;;22.40;16.97;;;13.50;99.90;;;;;;6217348;23;20804;-52
2021/09/06 00:16:49;;;;;;;20.50;18.30;;;13.50;1.00;;;;;;6217236;23;20423;-56
2021/09/06 00:19:24;;;;;;;21.47;19.13;;;13.40;1.00;;;;;;6217427;23;20423;-56
2021/09/06 00:21:51;;;;;;;22.17;17.53;;;13.30;99.90;;;;;;6217030;23;20440;-52
2021/09/06 00:24:18;;;;;;;23.67;18.70;;;13.30;1.00;;;;;;6216727;23;20457;-53
2021/09/06 00:26:46;;;;;;;21.07;18.90;;;13.20;79.50;;;;;;6216925;23;20853;-52
2021/09/06 00:29:13;;;;;;;25.13;18.43;;;13.20;99.90;;;;;;6216761;23;20446;-48
2021/09/06 00:31:40;;;;;;;22.47;17.70;;;13.20;99.90;;;;;;6217180;23;20431;-53
2021/09/06 00:34:07;;;;;;;23.00;19.50;;;13.20;1.00;;;;;;6216973;23;20420;-55
2021/09/06 00:36:35;;;;;;;23.17;18.27;;;13.20;1.00;;;;;;6217329;23;20415;-54
2021/09/06 00:39:02;;;;;;;22.43;19.10;;;13.20;1.00;;;;;;6218287;23;20708;-53
2021/09/06 00:41:29;;;;;;;21.20;18.90;;;13.10;99.90;;;;;;6219283;23;20849;-53
2021/09/06 00:43:57;;;;;;;20.90;17.97;;;13.10;99.90;;;;;;6219359;23;20458;-55
2021/09/06 00:46:24;;;;;;;23.70;18.13;;;13.10;1.00;;;;;;6218700;23;20458;-52
2021/09/06 00:48:51;;;;;;;25.77;17.93;;;13.10;99.90;;;;;;6218712;23;20419;-54
2021/09/06 00:51:20;;;;;;;20.90;18.17;;;13.10;99.90;;;;;;6218525;23;20505;-56
2021/09/06 00:53:47;;;;;;;22.10;19.47;;;13.10;1.00;;;;;;6218984;23;20422;-56
2021/09/06 00:56:14;;;;;;;20.53;18.10;;;13.10;1.00;;;;;;6218218;23;20422;-54
2021/09/06 00:58:41;;;;;;;22.27;19.50;;;13.00;1.00;;;;;;6218446;23;20864;-56
2021/09/06 01:01:12;;;;;;;21.40;18.23;;;13.00;1.00;;;;;;6219071;23;20482;-56
2021/09/06 01:03:39;;;;;;;20.53;18.43;;;13.00;35.90;;;;;;6219244;23;20454;-52
2021/09/06 01:06:06;;;;;;;22.40;18.60;;;13.00;60.30;;;;;;6218709;23;20430;-51
2021/09/06 01:08:33;;;;;;;22.17;17.73;;;13.00;1.00;;;;;;6218648;23;20419;-55
2021/09/06 01:11:01;;;;;;;20.77;17.47;;;13.00;32.20;;;;;;6218737;23;20415;-53
2021/09/06 01:13:28;;;;;;;22.63;20.00;;;12.90;1.00;;;;;;6219360;23;20418;-53
2021/09/06 01:15:55;;;;;;;20.93;18.27;;;13.00;1.00;;;;;;6219058;23;20418;-52
2021/09/06 01:18:24;;;;;;;21.37;16.50;;;12.90;98.60;;;;;;6218768;23;20494;-54
2021/09/06 01:20:51;;;;;;;20.63;17.03;;;12.90;99.90;;;;;;6218280;23;20427;-56
2021/09/06 01:23:21;;;;;;;20.47;18.00;;;12.80;99.90;;;;;;6218353;23;20457;-56
2021/09/06 01:25:53;;;;;;;27.83;21.03;;;12.80;1.00;;;;;;6218700;23;20464;-53
2021/09/06 01:28:22;;;;;;;21.87;18.03;;;12.80;99.90;;;;;;6218412;23;20425;-53
2021/09/06 01:30:49;;;;;;;24.23;18.60;;;12.70;1.00;;;;;;6219143;23;20418;-56
2021/09/06 01:33:19;;;;;;;21.30;18.60;;;12.70;1.00;;;;;;6218559;23;20454;-55
2021/09/06 01:35:49;;;;;;;21.67;19.17;;;12.70;1.00;;;;;;6218536;23;20916;-53
2021/09/06 01:38:16;;;;;;;19.47;17.23;;;12.70;1.00;;;;;;6217690;23;20465;-56
2021/09/06 01:40:44;;;;;;;22.20;17.73;;;12.60;1.00;;;;;;6218609;23;20488;-56
2021/09/06 01:43:13;;;;;;;20.70;17.53;;;12.60;99.90;;;;;;6217705;23;20517;-56
2021/09/06 01:45:40;;;;;;;20.47;17.17;;;12.60;1.00;;;;;;6218902;23;20457;-56
2021/09/06 01:48:07;;;;;;;19.53;17.43;;;12.60;1.00;;;;;;6218871;23;20433;-51
2021/09/06 01:50:34;;;;;;;19.13;17.13;;;12.60;99.90;;;;;;6218194;23;20422;-56
2021/09/06 01:53:01;;;;;;;22.07;17.67;;;12.50;99.90;;;;;;6218255;23;20419;-50
2021/09/06 01:55:28;;;;;;;20.93;18.47;;;12.50;83.20;;;;;;6218416;23;20422;-55
2021/09/06 01:57:57;;;;;;;22.80;17.80;;;12.40;1.00;;;;;;6217764;23;20419;-50
2021/09/06 02:00:25;;;;;;;22.03;19.73;;;12.40;1.00;;;;;;6217776;23;20447;-53
2021/09/06 02:02:52;;;;;;;19.87;17.10;;;12.40;99.90;;;;;;6218715;23;20450;-52
2021/09/06 02:05:21;;;;;;;21.07;18.73;;;12.30;99.90;;;;;;6218258;23;20482;-55
2021/09/06 02:07:47;;;;;;;21.33;18.23;;;12.40;1.00;;;;;;6217450;23;20787;-56
2021/09/06 02:10:14;;;;;;;21.40;18.40;;;12.40;1.00;;;;;;6218341;23;20506;-49
2021/09/06 02:12:41;;;;;;;21.80;17.67;;;12.30;1.00;;;;;;6217735;23;20426;-54
2021/09/06 02:15:09;;;;;;;21.33;17.90;;;12.30;1.00;;;;;;6218434;23;20431;-54
2021/09/06 02:17:37;;;;;;;23.03;19.10;;;12.30;90.90;;;;;;6217552;23;20422;-55
2021/09/06 02:20:05;;;;;;;22.60;18.73;;;12.30;46.00;;;;;;6217850;23;20841;-54
2021/09/06 02:22:32;;;;;;;20.80;17.70;;;12.30;1.00;;;;;;6217820;23;20742;-55
2021/09/06 02:24:59;;;;;;;20.63;17.60;;;12.30;1.00;;;;;;6217291;23;20956;-56
2021/09/06 02:27:26;;;;;;;19.13;17.07;;;12.30;99.90;;;;;;6217584;23;20418;-56
2021/09/06 02:29:53;;;;;;;23.97;19.57;;;12.30;99.90;;;;;;6217709;23;20426;-55
2021/09/06 02:32:20;;;;;;;19.43;17.43;;;12.30;99.90;;;;;;6218033;23;20418;-56
2021/09/06 02:34:48;;;;;;;19.90;17.07;;;12.30;99.90;;;;;;6218064;23;20422;-50
2021/09/06 02:37:17;;;;;;;21.17;17.60;;;12.30;49.60;;;;;;6217650;23;20454;-56
2021/09/06 02:39:44;;;;;;;21.73;18.20;;;12.30;1.50;;;;;;6217545;23;20422;-53
2021/09/06 02:42:11;;;;;;;21.73;17.97;;;12.40;86.90;;;;;;6217875;23;20481;-53
2021/09/06 02:44:38;;;;;;;23.90;18.60;;;12.30;1.00;;;;;;6217959;23;20489;-54
2021/09/06 02:47:05;;;;;;;23.10;18.07;;;12.20;99.90;;;;;;6218324;23;20498;-52
2021/09/06 02:49:32;;;;;;;21.20;16.90;;;12.20;1.00;;;;;;6218273;23;20426;-55
2021/09/06 02:52:01;;;;;;;19.47;17.37;;;12.20;99.90;;;;;;6217708;23;20461;-54
2021/09/06 02:54:27;;;;;;;20.90;17.87;;;12.10;99.90;;;;;;6217649;23;20679;-55
2021/09/06 02:56:54;;;;;;;21.00;18.00;;;12.10;99.90;;;;;;6217519;23;20423;-55
2021/09/06 02:59:21;;;;;;;25.40;19.13;;;12.10;99.90;;;;;;6217102;23;20893;-54
2021/09/06 03:01:48;;;;;;;21.20;18.47;;;12.00;1.00;;;;;;6217407;23;20451;-56
2021/09/06 03:04:15;;;;;;;21.63;18.60;;;11.90;1.00;;;;;;6217767;23;20446;-57
2021/09/06 03:06:42;;;;;;;21.43;18.70;;;11.90;99.90;;;;;;6217961;23;20946;-57
2021/09/06 03:09:10;;;;;;;19.90;17.40;;;11.90;99.90;;;;;;6217595;23;20415;-56
2021/09/06 03:11:38;;;;;;;20.90;17.33;;;11.90;99.90;;;;;;6217626;23;20864;-57
2021/09/06 03:14:05;;;;;;;20.43;17.80;;;11.90;99.90;;;;;;6217902;23;20415;-56
2021/09/06 03:16:32;;;;;;;19.40;16.87;;;11.90;99.90;;;;;;6217937;23;20727;-56
2021/09/06 03:18:58;;;;;;;21.73;18.03;;;11.90;99.90;;;;;;6218041;23;20398;-55
2021/09/06 03:21:25;;;;;;;19.37;17.27;;;11.80;99.90;;;;;;6216988;23;20870;-53
2021/09/06 03:23:54;;;;;;;23.77;18.00;;;11.90;95.10;;;;;;6217159;23;20453;-56
2021/09/06 03:26:22;;;;;;;21.10;17.60;;;11.80;1.00;;;;;;6217205;23;20459;-54
2021/09/06 03:28:49;;;;;;;22.03;18.17;;;11.80;5.00;;;;;;6217434;23;20857;-55
2021/09/06 03:31:16;;;;;;;25.80;19.03;;;11.80;1.00;;;;;;6217535;23;20423;-53
2021/09/06 03:33:45;;;;;;;22.63;19.87;;;11.80;1.00;;;;;;6217456;23;20860;-51
2021/09/06 03:36:12;;;;;;;22.90;18.10;;;11.80;1.00;;;;;;6217135;23;20414;-52
2021/09/06 03:38:38;;;;;;;24.03;19.00;;;11.80;99.90;;;;;;6217038;23;20426;-55
2021/09/06 03:41:06;;;;;;;23.47;19.10;;;11.80;99.90;;;;;;6217181;23;20415;-57
2021/09/06 03:43:35;;;;;;;22.97;18.73;;;11.80;99.90;;;;;;6216414;23;20486;-57
2021/09/06 03:46:02;;;;;;;24.13;20.13;;;11.80;1.00;;;;;;6216449;23;20411;-55
2021/09/06 03:48:30;;;;;;;22.90;17.53;;;11.70;1.00;;;;;;6215546;23;20414;-57
2021/09/06 03:50:57;;;;;;;21.70;18.70;;;11.70;99.90;;;;;;6216274;23;20768;-57
2021/09/06 03:53:24;;;;;;;20.17;17.80;;;11.70;99.90;;;;;;6216912;23;20454;-57
2021/09/06 03:55:51;;;;;;;22.43;18.57;;;11.70;99.90;;;;;;6217075;23;20411;-57
2021/09/06 03:58:18;;;;;;;21.37;19.03;;;11.70;99.90;;;;;;6217442;23;20699;-57
2021/09/06 04:00:46;;;;;;;21.20;19.00;;;11.70;99.90;;;;;;6216861;23;20513;-57
2021/09/06 04:03:13;;;;;;;24.10;19.43;;;11.70;99.90;;;;;;6217135;23;20415;-57
2021/09/06 04:05:40;;;;;;;20.40;17.67;;;11.70;99.90;;;;;;6217245;23;20504;-57
2021/09/06 04:08:07;;;;;;;21.47;19.00;;;11.70;99.90;;;;;;6217089;23;20477;-58
2021/09/06 04:10:36;;;;;;;21.40;18.80;;;11.70;1.00;;;;;;6217109;23;20430;-58
2021/09/06 04:13:04;;;;;;;23.27;19.00;;;11.70;1.00;;;;;;6216231;23;20415;-58
2021/09/06 04:15:31;;;;;;;24.37;19.03;;;11.70;1.00;;;;;;6216530;23;20422;-58
2021/09/06 04:17:59;;;;;;;22.17;19.33;;;11.60;1.00;;;;;;6216887;23;20426;-56
2021/09/06 04:20:26;;;;;;;22.30;18.10;;;11.60;54.70;;;;;;6217043;23;20426;-56
2021/09/06 04:22:53;;;;;;;22.63;19.17;;;11.60;99.90;;;;;;6215562;23;20900;-58
2021/09/06 04:25:20;;;;;;;23.47;18.70;;;11.50;99.90;;;;;;6216505;23;20478;-58
2021/09/06 04:27:46;;;;;;;26.90;19.93;;;11.50;99.90;;;;;;6216907;23;20425;-54
2021/09/06 04:30:14;;;;;;;25.33;20.10;;;11.40;99.90;;;;;;6215835;23;20429;-54
2021/09/06 04:32:41;;;;;;;25.67;18.40;;;11.50;99.90;;;;;;6215529;23;20465;-56
2021/09/06 04:35:09;;;;;;;20.23;17.80;;;11.40;99.90;;;;;;6216156;23;20934;-58
2021/09/06 04:37:36;;;;;;;20.10;17.43;;;11.40;99.90;;;;;;6216509;23;20888;-58
2021/09/06 04:40:05;;;;;;;25.37;17.67;;;11.40;99.90;;;;;;6216909;23;20881;-58
2021/09/06 04:42:32;;;;;;;21.13;18.37;;;11.40;1.00;;;;;;6216601;23;20838;-58
2021/09/06 04:44:59;;;;;;;21.27;18.87;;;11.40;1.00;;;;;;6217743;23;20482;-58
2021/09/06 04:47:26;;;;;;;23.20;19.00;;;11.30;1.00;;;;;;6216673;23;20667;-58
2021/09/06 04:49:54;;;;;;;25.50;19.10;;;11.30;99.90;;;;;;6216672;23;20423;-58
2021/09/06 04:52:24;;;;;;;23.90;18.70;;;11.30;99.90;;;;;;6216367;23;20419;-58
2021/09/06 04:54:53;;;;;;;21.63;19.10;;;11.30;99.90;;;;;;6216114;23;20426;-58
2021/09/06 04:57:20;;;;;;;20.97;18.57;;;11.30;99.90;;;;;;6215437;23;20415;-58
2021/09/06 04:59:46;;;;;;;23.47;18.80;;;11.30;99.90;;;;;;6216402;23;20442;-58
2021/09/06 05:02:13;;;;;;;26.87;19.37;;;11.20;99.90;;;;;;6216855;23;20419;-58
2021/09/06 05:04:43;;;;;;;23.13;18.30;;;11.30;99.90;;;;;;6216757;23;20924;-58
2021/09/06 05:07:10;;;;;;;21.03;16.97;;;11.30;99.90;;;;;;6216327;23;20488;-59
2021/09/06 05:09:39;;;;;;;24.07;19.17;;;11.30;99.90;;;;;;6214532;23;20427;-58
2021/09/06 05:12:09;;;;;;;25.23;20.50;;;11.30;99.90;;;;;;6216030;23;20421;-59
2021/09/06 05:14:36;;;;;;;27.97;18.87;;;11.40;99.90;;;;;;6217565;23;20415;-59
2021/09/06 05:17:03;;;;;;;22.70;17.70;;;11.40;99.90;;;;;;6217083;23;20411;-59
2021/09/06 05:19:30;;;;;;;24.67;18.63;;;11.50;99.90;;;;;;6216871;23;20421;-57
2021/09/06 05:21:57;;;;;;;22.33;18.20;;;11.60;99.90;;;;;;6217174;23;20419;-59
2021/09/06 05:24:24;;;;;;;21.60;18.60;;;11.60;99.90;;;;;;6217646;23;20415;-59
2021/09/06 05:26:52;;;;;;;24.20;18.57;;;11.70;99.90;;;;;;6219529;23;20415;-59
2021/09/06 05:29:19;;;;;;;22.80;18.90;;;11.70;99.90;;;;;;6217904;23;20419;-59
2021/09/06 05:31:46;;;;;;;23.93;18.57;;;11.70;99.90;;;;;;6219209;23;20458;-59
2021/09/06 05:34:16;;;;;;;25.93;18.67;;;11.80;1.00;;;;;;6218746;23;20481;-59
2021/09/06 05:36:46;;;;;;;21.50;18.03;;;11.80;1.00;;;;;;6219210;23;20484;-59
2021/09/06 05:39:13;;;;;;;22.97;19.17;;;11.90;1.00;;;;;;6217007;23;20423;-59
2021/09/06 05:41:41;;;;;;;23.43;19.07;;;11.90;1.00;;;;;;6217588;23;20685;-59
2021/09/06 05:44:10;;;;;;;22.70;18.87;;;12.00;99.90;;;;;;6216596;23;20474;-59
2021/09/06 05:46:37;;;;;;;23.57;18.80;;;12.10;99.90;;;;;;6217309;23;20457;-59
2021/09/06 05:49:04;;;;;;;22.40;18.93;;;12.20;99.90;;;;;;6217194;23;20736;-59
2021/09/06 05:51:33;;;;;;;26.53;19.20;;;12.20;99.90;;;;;;6214820;23;20729;-59
2021/09/06 05:54:00;;;;;;;22.70;19.83;;;12.30;99.90;;;;;;6217399;23;20450;-59
2021/09/06 05:56:27;;;;;;;27.27;21.00;;;12.40;1.00;;;;;;6218037;23;20497;-59
2021/09/06 05:58:54;;;;;;;22.70;20.30;;;12.50;1.00;;;;;;6218853;23;20472;-59
2021/09/06 06:01:23;;;;;;;27.00;21.50;;;12.60;1.00;;;;;;6218293;23;20457;-59
2021/09/06 06:03:50;;;;;;;25.47;19.87;;;12.70;1.00;;;;;;6218717;23;20419;-59
2021/09/06 06:06:21;;;;;;;29.63;22.63;;;13.00;99.90;;;;;;6218588;23;20936;-59
2021/09/06 06:08:48;;;;;;;26.73;21.43;;;13.20;99.90;;;;;;6218615;23;20429;-59
2021/09/06 06:11:15;;;;;;;24.93;19.73;;;13.30;99.90;;;;;;6218421;23;20915;-59
2021/09/06 06:13:42;;;;;;;29.10;21.17;;;13.40;99.90;;;;;;6218324;23;20419;-59
2021/09/06 06:16:09;;;;;;;27.10;22.00;;;13.50;1.00;;;;;;6218285;23;20951;-57
2021/09/06 06:18:37;;;;;;;24.27;19.97;;;13.60;98.40;;;;;;6218623;23;20870;-59
2021/09/06 06:21:04;;;;;;;25.43;22.70;;;13.80;76.90;;;;;;6218779;23;20414;-59
2021/09/06 06:23:31;;;;;;;28.53;23.97;;;13.90;1.00;;;;;;6218012;23;20428;-59
2021/09/06 06:25:58;;;;;;;30.90;24.97;;;14.00;99.90;;;;;;6218283;23;20450;-60
2021/09/06 06:28:25;;;;;;;40.83;23.73;;;14.20;99.90;;;;;;6218526;23;20411;-59
2021/09/06 06:30:51;;;;;;;30.10;22.37;;;14.40;99.90;;;;;;6217989;23;20446;-59
2021/09/06 06:33:19;;;;;;;29.50;22.90;;;14.60;99.90;;;;;;6218539;23;20418;-60
2021/09/06 06:35:49;;;;;;;29.67;22.50;;;14.80;41.50;;;;;;6217984;23;20465;-59
2021/09/06 06:38:16;;;;;;;31.77;23.97;;;15.00;93.20;;;;;;6218008;23;20530;-59
2021/09/06 06:40:45;;;;;;;26.13;23.33;;;15.40;27.90;;;;;;6218084;23;20415;-59
2021/09/06 06:43:15;;;;;;;24.70;22.10;;;15.60;1.00;;;;;;6217856;23;20475;-57
2021/09/06 06:45:42;;;;;;;28.90;23.50;;;15.80;1.00;;;;;;6218059;23;20458;-59
2021/09/06 06:48:09;;;;;;;26.40;23.10;;;16.00;1.00;;;;;;6218020;23;20419;-57
2021/09/06 06:50:36;;;;;;;31.37;23.60;;;16.20;1.00;;;;;;6218337;23;20465;-59
2021/09/06 06:53:05;;;;;;;29.17;24.00;;;16.40;1.00;;;;;;6218248;23;20513;-58
2021/09/06 06:55:36;;;;;;;27.90;24.33;;;16.60;1.00;;;;;;6217951;23;20415;-56
2021/09/06 06:58:03;;;;;;;27.67;23.80;;;16.70;1.00;;;;;;6218189;23;20724;-57
2021/09/06 07:00:33;;;;;;;32.20;23.40;;;16.80;1.00;;;;;;6217222;23;20447;-56
2021/09/06 07:03:00;;;;;;;27.27;23.27;;;17.10;1.00;;;;;;6218246;23;20485;-55
2021/09/06 07:05:29;;;;;;;27.50;23.13;;;17.10;1.00;;;;;;6217705;23;20469;-58
2021/09/06 07:07:59;;;;;;;31.07;25.17;;;17.20;1.00;;;;;;6218348;23;20858;-57
2021/09/06 07:10:27;;;;;;;28.20;23.30;;;17.40;1.00;;;;;;6218058;23;20872;-55
2021/09/06 07:12:54;;;;;;;29.73;24.50;;;17.60;1.00;;;;;;6218469;23;20441;-55
2021/09/06 07:15:21;;;;;;;29.37;23.83;;;18.10;1.00;;;;;;6217672;23;20454;-58
2021/09/06 07:17:48;;;;;;;29.80;23.23;;;18.50;1.00;;;;;;6217581;23;20418;-58
2021/09/06 07:20:17;;;;;;;25.70;22.40;;;18.90;1.00;;;;;;6215916;23;20415;-57
2021/09/06 07:22:47;;;;;;;29.60;23.10;;;19.40;1.00;;;;;;6217849;23;20442;-58
2021/09/06 07:25:16;;;;;;;26.37;23.57;;;19.90;1.00;;;;;;6216560;23;20486;-57
2021/09/06 07:27:46;;;;;;;23.90;19.93;;;20.00;1.00;;;;;;6217613;23;20426;-57
2021/09/06 07:30:16;;;;;;;24.23;21.60;;;20.30;1.00;;;;;;6218204;23;20423;-57
2021/09/06 07:32:44;;;;;;;23.97;21.00;;;20.30;1.00;;;;;;6217655;23;20415;-57
2021/09/06 07:35:11;;;;;;;23.97;21.50;;;20.20;1.00;;;;;;6216938;23;20419;-55
2021/09/06 07:37:39;;;;;;;24.03;21.60;;;20.30;1.00;;;;;;6218234;23;20438;-53
2021/09/06 07:40:12;;;;;;;23.67;21.23;;;20.50;1.00;;;;;;6216862;23;20510;-57
2021/09/06 07:42:39;;;;;;;23.00;20.27;;;20.80;1.00;;;;;;6215142;23;20477;-53
2021/09/06 07:45:09;;;;;;;22.60;20.40;;;21.20;1.00;;;;;;6215289;23;20415;-55
2021/09/06 07:47:36;;;;;;;22.40;20.20;;;21.30;1.00;;;;;;6216381;23;20423;-56
2021/09/06 07:50:09;;;;;;;22.37;20.23;;;21.60;99.90;;;;;;6217145;23;20731;-56
2021/09/06 07:52:36;;;;;;;21.73;19.63;;;21.70;1.00;;;;;;6216798;23;20415;-57
2021/09/06 07:55:03;;;;;;;21.77;19.60;;;21.80;99.90;;;;;;6217418;23;20473;-56
2021/09/06 07:57:30;;;;;;;22.93;20.70;;;21.90;99.90;;;;;;6217868;23;20418;-56
2021/09/06 08:00:02;;;;;;;24.13;21.23;;;22.10;99.90;;;;;;6217182;23;20485;-56
2021/09/06 08:02:38;;;;;;;24.10;21.60;;;22.20;99.90;;;;;;6217592;23;20419;-50
2021/09/06 08:05:09;;;;;;;22.87;20.50;;;22.60;99.90;;;;;;6216723;23;20418;-55
2021/09/06 08:07:36;;;;;;;23.60;21.20;;;22.70;99.90;;;;;;6217719;23;20415;-54
2021/09/06 08:10:09;;;;;;;23.80;21.33;;;23.00;99.90;;;;;;6217233;23;20880;-54
2021/09/06 08:12:37;;;;;;;22.87;20.47;;;23.30;99.90;;;;;;6217821;23;20427;-55
2021/09/06 08:15:05;;;;;;;24.70;22.10;;;23.60;99.90;;;;;;6217567;23;20414;-56
2021/09/06 08:17:34;;;;;;;22.67;20.30;;;23.50;99.90;;;;;;6217625;23;20425;-52
2021/09/06 08:20:01;;;;;;;23.47;20.87;;;23.80;99.90;;;;;;6216928;23;20422;-57
2021/09/06 08:22:28;;;;;;;23.23;20.83;;;24.10;99.90;;;;;;6217532;23;20442;-51
2021/09/06 08:24:55;;;;;;;24.20;21.70;;;24.30;99.90;;;;;;6217532;23;20873;-53
2021/09/06 08:27:22;;;;;;;22.23;19.90;;;24.50;99.90;;;;;;6217224;23;20486;-55
2021/09/06 08:29:51;;;;;;;22.57;20.17;;;24.70;99.90;;;;;;6217143;23;20513;-53
2021/09/06 08:32:23;;;;;;;23.13;20.67;;;25.00;99.90;;;;;;6216875;23;20423;-51
2021/09/06 08:34:52;;;;;;;24.13;18.40;;;25.20;99.90;;;;;;6217823;23;20454;-53
2021/09/06 08:37:22;;;;;;;23.50;20.50;;;25.30;99.90;;;;;;6217636;23;20497;-54
2021/09/06 08:39:50;;;;;;;21.50;19.33;;;25.50;99.90;;;;;;6217465;23;20780;-57
2021/09/06 08:42:18;;;;;;;20.57;18.50;;;25.50;99.90;;;;;;6217252;23;20729;-52
2021/09/06 08:44:46;;;;;;;22.10;19.77;;;25.40;99.90;;;;;;6217189;23;20470;-52
2021/09/06 08:47:15;;;;;;;22.67;20.50;;;25.60;99.90;;;;;;6216072;23;20450;-53
2021/09/06 08:49:44;;;;;;;21.93;19.73;;;26.00;99.90;;;;;;6217058;23;20423;-50
2021/09/06 08:52:12;;;;;;;19.90;17.87;;;26.20;99.90;;;;;;6214678;23;20841;-52
2021/09/06 08:54:44;;;;;;;21.50;19.30;;;26.20;99.90;;;;;;6215784;23;20418;-54
2021/09/06 08:57:23;;;;;;;19.27;17.37;;;26.20;99.90;;;;;;6215227;23;20425;-54
2021/09/06 09:00:03;;;;;;;18.90;17.10;;;26.60;99.90;;;;;;6217297;23;20732;-47
2021/09/06 09:02:30;;;;;;;19.03;17.30;;;26.90;99.90;;;;;;6219428;23;20418;-53
2021/09/06 09:05:01;;;;;;;18.50;16.80;;;27.00;99.90;;;;;;6219361;23;20422;-53
2021/09/06 09:07:30;;;;;;;18.33;16.63;;;27.20;99.90;;;;;;6218936;23;20509;-50
2021/09/06 09:09:58;;;;;;;18.47;16.70;;;27.40;99.90;;;;;;6218947;23;20423;-50
2021/09/06 09:12:27;;;;;;;19.27;17.33;;;27.40;99.90;;;;;;6218878;23;20806;-57
2021/09/06 09:14:55;;;;;;;19.27;17.60;;;27.30;99.90;;;;;;6219341;23;20419;-52
2021/09/06 09:17:23;;;;;;;17.90;16.17;;;27.40;99.90;;;;;;6219182;23;20474;-52
2021/09/06 09:19:51;;;;;;;17.40;15.90;;;27.00;99.90;;;;;;6218981;23;20866;-55
2021/09/06 09:22:20;;;;;;;18.83;17.03;;;27.10;99.90;;;;;;6218854;23;20723;-55
2021/09/06 09:24:59;;;;;;;20.17;18.37;;;27.50;99.90;;;;;;6219358;23;20876;-50
2021/09/06 09:27:34;;;;;;;18.37;16.50;;;27.80;99.90;;;;;;6219129;23;20919;-51
2021/09/06 09:30:04;;;;;;;18.00;16.10;;;28.00;99.90;;;;;;6218743;23;20418;-49
2021/09/06 09:32:35;;;;;;;18.27;16.67;;;28.20;99.90;;;;;;6217888;23;20458;-54
2021/09/06 09:35:05;;;;;;;18.67;16.97;;;28.20;99.90;;;;;;6218917;23;20394;-53
2021/09/06 09:37:33;;;;;;;19.00;17.33;;;27.70;99.90;;;;;;6218653;23;20437;-55
2021/09/06 09:40:06;;;;;;;18.40;16.80;;;28.10;99.90;;;;;;6218227;23;20422;-51
2021/09/06 09:42:33;;;;;;;18.40;16.23;;;28.10;99.90;;;;;;6218259;23;20457;-52
2021/09/06 09:45:03;;;;;;;17.70;16.20;;;27.50;99.90;;;;;;6218145;23;20423;-52
2021/09/06 09:47:30;;;;;;;14.23;12.83;;;27.70;99.90;;;;;;6218266;23;20451;-50
2021/09/06 09:50:01;;;;;;;14.43;13.23;;;27.70;99.90;;;;;;6218298;23;20426;-52
2021/09/06 09:52:28;;;;;;;14.37;13.10;;;27.90;99.90;;;;;;6218706;23;20423;-50
2021/09/06 09:54:55;;;;;;;23.87;17.53;;;27.80;99.90;;;;;;6218704;23;20853;-53
2021/09/06 09:57:26;;;;;;;14.30;13.10;;;27.00;99.90;;;;;;6217386;23;20411;-52
2021/09/06 09:59:53;;;;;;;15.40;14.13;;;26.30;99.90;;;;;;6218018;23;20446;-53
2021/09/06 10:02:25;;;;;;;14.13;12.90;;;27.40;99.90;;;;;;6218554;23;20419;-57
2021/09/06 10:05:01;;;;;;;15.63;14.33;;;28.30;99.90;;;;;;6219197;23;20683;-51
2021/09/06 10:07:35;;;;;;;14.23;12.87;;;29.10;99.90;;;;;;6217369;23;20508;-56
2021/09/06 10:10:18;;;;;;;14.67;13.53;;;29.30;99.90;;;;;;6218201;23;20853;-51
2021/09/06 10:12:52;;;;;;;15.07;13.67;;;29.50;99.90;;;;;;6217941;23;20484;-53
2021/09/06 10:15:19;;;;;;;14.37;13.10;;;29.20;99.90;;;;;;6218316;23;20419;-50
2021/09/06 10:17:52;;;;;;;14.63;13.20;;;28.40;99.90;;;;;;6218164;23;20862;-53
2021/09/06 10:20:27;;;;;;;14.53;12.73;;;28.00;99.90;;;;;;6217280;23;20488;-50
2021/09/06 10:23:07;;;;;;;14.00;12.60;;;27.10;99.90;;;;;;6218633;23;20415;-51
2021/09/06 10:25:42;;;;;;;14.50;13.30;;;27.60;99.90;;;;;;6218360;23;20911;-53
2021/09/06 10:28:13;;;;;;;14.27;13.00;;;27.40;99.90;;;;;;6218335;23;20437;-49
2021/09/06 10:30:42;;;;;;;13.97;12.67;;;27.60;99.90;;;;;;6218419;23;20398;-50
2021/09/06 10:33:24;;;;;;;14.40;13.03;;;27.70;99.90;;;;;;6217879;23;20876;-49
2021/09/06 10:35:54;;;;;;;14.90;13.47;;;28.40;99.90;;;;;;6217615;23;20426;-49
2021/09/06 10:38:24;;;;;;;184.80;27.03;;;28.00;99.90;;;;;;6218383;23;20773;-50
2021/09/06 10:40:53;;;;;;;27.50;12.30;;;27.50;99.90;;;;;;6218098;23;20445;-49
2021/09/06 10:43:25;;;;;;;12.17;11.07;;;27.20;99.90;;;;;;6216866;23;20419;-50
2021/09/06 10:45:53;;;;;;;11.47;10.47;;;28.30;99.90;;;;;;6218104;23;20884;-50
2021/09/06 10:48:24;;;;;;;12.53;11.43;;;28.10;99.90;;;;;;6217935;23;20488;-53
2021/09/06 10:50:54;;;;;;;11.47;10.57;;;27.80;99.90;;;;;;6217888;23;20423;-47
2021/09/06 10:53:26;;;;;;;11.63;10.57;;;28.10;99.90;;;;;;6218635;23;20419;-55
2021/09/06 10:55:57;;;;;;;13.03;11.70;;;27.70;99.90;;;;;;6218266;23;20419;-54
2021/09/06 10:58:29;;;;;;;11.63;10.63;;;28.10;99.90;;;;;;6218571;23;20423;-51
2021/09/06 11:01:00;;;;;;;11.37;10.47;;;29.00;99.90;;;;;;6217803;23;20538;-47
2021/09/06 11:03:34;;;;;;;11.00;10.10;;;28.00;99.90;;;;;;6216757;23;20434;-52
2021/09/06 11:06:02;;;;;;;11.83;10.60;;;29.00;99.90;;;;;;6217638;23;20439;-52
2021/09/06 11:08:31;;;;;;;10.50;9.70;;;29.80;99.90;;;;;;6217343;23;20419;-48
2021/09/06 11:11:00;;;;;;;10.83;9.93;;;29.30;99.90;;;;;;6216622;23;20423;-53
2021/09/06 11:13:34;;;;;;;12.20;11.10;;;29.00;99.90;;;;;;6217232;23;20884;-53
2021/09/06 11:16:03;;;;;;;11.67;10.67;;;29.70;99.90;;;;;;6217535;23;20422;-54
2021/09/06 11:18:33;;;;;;;10.70;9.83;;;30.00;99.90;;;;;;6216719;23;20414;-54
2021/09/06 11:21:01;;;;;;;11.70;10.80;;;30.50;99.90;;;;;;6215274;23;20422;-53
2021/09/06 11:23:34;;;;;;;12.20;11.20;;;30.50;99.90;;;;;;6214452;23;20445;-57
2021/09/06 11:26:03;;;;;;;11.63;10.70;;;31.20;99.90;;;;;;6215185;23;20422;-53
2021/09/06 11:28:30;;;;;;;11.07;10.13;;;31.30;99.90;;;;;;6214261;23;20422;-53
2021/09/06 11:30:59;;;;;;;13.83;12.73;;;31.40;99.90;;;;;;6215574;23;20444;-49
2021/09/06 11:33:31;;;;;;;12.40;11.30;;;31.60;99.90;;;;;;6214932;23;20425;-55
2021/09/06 11:35:58;;;;;;;12.87;11.87;;;30.70;99.90;;;;;;6215263;23;20426;-54
2021/09/06 11:38:25;;;;;;;13.17;11.97;;;30.70;99.90;;;;;;6215576;23;20422;-53
2021/09/06 11:40:56;;;;;;;12.87;11.80;;;30.10;99.90;;;;;;6216343;23;20707;-50
2021/09/06 11:43:26;;;;;;;13.70;12.60;;;30.20;99.90;;;;;;6215556;23;20853;-55
2021/09/06 11:46:01;;;;;;;11.73;10.83;;;30.60;99.90;;;;;;6216837;23;20791;-53
2021/09/06 11:48:29;;;;;;;13.53;12.53;;;31.00;99.90;;;;;;6215477;23;20532;-54
2021/09/06 11:51:06;;;;;;;11.93;11.03;;;30.30;99.90;;;;;;6214891;23;20418;-57
2021/09/06 11:53:33;;;;;;;11.50;10.60;;;30.30;99.90;;;;;;6217033;23;20406;-54
2021/09/06 11:56:00;;;;;;;11.90;10.90;;;30.10;99.90;;;;;;6216385;23;20461;-54
2021/09/06 11:58:28;;;;;;;12.97;11.77;;;30.30;99.90;;;;;;6216670;23;20422;-57
2021/09/06 12:01:14;;;;;;;12.27;11.27;;;30.30;99.90;;;;;;6216320;23;20442;-58
2021/09/06 12:03:42;;;;;;;12.37;11.40;;;29.70;99.90;;;;;;6212765;23;20904;-57
2021/09/06 12:06:12;;;;;;;13.27;12.17;;;29.70;99.90;;;;;;6215087;23;20513;-57
2021/09/06 12:08:50;;;;;;;12.87;11.87;;;29.00;99.90;;;;;;6216568;23;20414;-55
2021/09/06 12:11:22;;;;;;;13.80;12.70;;;29.00;99.90;;;;;;6216513;23;20477;-55
2021/09/06 12:13:58;;;;;;;13.20;12.00;;;29.00;99.90;;;;;;6216900;23;20415;-54
2021/09/06 12:16:30;;;;;;;12.37;11.30;;;29.00;99.90;;;;;;6216829;23;20505;-56
2021/09/06 12:18:58;;;;;;;14.10;12.90;;;28.90;99.90;;;;;;6215979;23;20698;-56
2021/09/06 12:21:29;;;;;;;13.83;12.73;;;28.60;99.90;;;;;;6216518;23;20443;-55
2021/09/06 12:24:01;;;;;;;13.17;12.17;;;28.50;99.90;;;;;;6216483;23;20485;-54
2021/09/06 12:26:39;;;;;;;12.00;11.00;;;28.70;99.90;;;;;;6216522;23;20422;-53
2021/09/06 12:29:06;;;;;;;14.13;13.00;;;28.50;99.90;;;;;;6215527;23;20689;-50
2021/09/06 12:31:42;;;;;;;12.63;11.30;;;27.80;99.90;;;;;;6214950;23;20925;-54
2021/09/06 12:34:10;;;;;;;13.83;11.93;;;27.70;99.90;;;;;;6214590;23;20446;-51
2021/09/06 12:36:41;;;;;;;13.33;12.07;;;27.80;99.90;;;;;;6216811;23;20423;-56
2021/09/06 12:39:08;;;;;;;13.13;12.00;;;28.00;99.90;;;;;;6214786;23;20421;-56